Time;durP1;ratioP1;P1;durP2;ratioP2;P2;SDS_P1;SDS_P2;PMS_P1;PMS_P2;Temp;Humidity;BMP_temperature;BMP_pressure;BME280_temperature;BME280_humidity;BME280_pressure;Samples;Min_cycle;Max_cycle;Signal;HPM_P1;HPM_P2
2022/01/27 00:00:38;;;;;;;23.38;9.05;;;;;;;3.75;97.19;99389.07;1608888;88;20967;-71
2022/01/27 00:05:52;;;;;;;27.75;10.48;;;;;;;3.74;97.05;99377.03;1661083;84;20963;-71
2022/01/27 00:08:21;;;;;;;25.48;10.55;;;;;;;3.76;97.12;99374.42;1676608;84;21148;-71
2022/01/27 00:10:52;;;;;;;23.57;10.10;;;;;;;3.76;97.11;99372.68;1691498;82;22219;-71
2022/01/27 00:13:24;;;;;;;33.33;10.50;;;;;;;3.78;97.06;99368.75;1701673;83;20982;-71
2022/01/27 00:15:58;;;;;;;23.52;10.80;;;;;;;3.80;97.03;99365.25;1705036;84;20965;-71
2022/01/27 00:18:20;;;;;;;26.93;10.28;;;;;;;3.80;97.03;99367.83;1702127;82;20910;-71
2022/01/27 00:20:48;;;;;;;25.75;10.30;;;;;;;3.78;97.09;99368.33;1689062;82;21920;-71
2022/01/27 00:23:16;;;;;;;24.87;10.30;;;;;;;3.83;96.93;99365.61;1707430;83;21068;-71
2022/01/27 00:25:43;;;;;;;;;;;;;;;3.82;96.89;99365.22;1709333;83;21566;-71
2022/01/27 00:28:10;;;;;;;23.15;9.58;;;;;;;3.74;96.93;99365.41;1706173;84;20079;-71
2022/01/27 00:30:38;;;;;;;27.17;10.28;;;;;;;3.72;97.17;99372.33;1709937;82;20976;-71
2022/01/27 00:33:05;;;;;;;26.97;10.78;;;;;;;3.68;97.15;99361.69;1704017;84;21895;-71
2022/01/27 00:35:32;;;;;;;31.97;10.32;;;;;;;3.69;97.17;99344.02;1725134;79;21931;-71
2022/01/27 00:38:00;;;;;;;22.58;10.30;;;;;;;3.67;97.16;99367.75;1785810;79;20922;-71
2022/01/27 00:40:26;;;;;;;;;;;;;;;3.66;97.21;99371.20;1789111;79;21507;-70
2022/01/27 00:42:53;;;;;;;28.10;11.57;;;;;;;3.66;97.26;99358.30;1752211;81;20121;-72
2022/01/27 00:45:22;;;;;;;27.67;10.37;;;;;;;3.65;97.24;99377.27;1779067;80;21132;-72
2022/01/27 00:47:49;;;;;;;25.30;9.63;;;;;;;3.55;97.17;99344.80;1755401;80;22096;-71
2022/01/27 00:50:18;;;;;;;23.03;9.73;;;;;;;3.64;97.24;99373.00;1755751;80;20895;-71
2022/01/27 00:52:52;;;;;;;21.95;8.95;;;;;;;3.63;97.26;99369.15;1764045;79;21446;-71
2022/01/27 00:55:17;;;;;;;26.17;9.25;;;;;;;3.59;97.35;99365.35;1778232;79;20942;-71
2022/01/27 01:00:19;;;;;;;22.62;10.08;;;;;;;3.58;97.31;99352.47;1778080;79;20946;-71
2022/01/27 01:02:51;;;;;;;21.85;9.23;;;;;;;3.59;97.37;99347.73;1776038;79;21432;-71
2022/01/27 01:07:54;;;;;;;26.68;8.73;;;;;;;3.59;97.33;99338.25;1758073;79;20973;-71
2022/01/27 01:13:59;;;;;;;17.92;7.75;;;;;;;3.58;97.32;99334.39;1792978;79;20934;-71
2022/01/27 01:15:41;;;;;;;20.55;8.08;;;;;;;3.59;97.39;99328.37;1790342;78;20901;-71
2022/01/27 01:18:44;;;;;;;23.45;8.38;;;;;;;3.62;97.36;99323.13;1789193;79;20890;-71
2022/01/27 01:32:08;;;;;;;22.15;6.78;;;;;;;3.62;97.24;99320.55;1792044;79;20906;-71
2022/01/27 01:34:25;;;;;;;24.05;7.60;;;;;;;3.63;97.32;99317.06;1784445;78;21483;-71
2022/01/27 01:36:57;;;;;;;24.27;7.22;;;;;;;3.64;97.28;99311.03;1785231;78;21071;-71
2022/01/27 01:39:27;;;;;;;22.25;8.05;;;;;;;3.65;97.27;99310.13;1755692;80;20946;-71
2022/01/27 01:41:58;;;;;;;20.12;8.10;;;;;;;3.67;97.19;99310.95;1791029;78;20918;-72
2022/01/27 01:44:25;;;;;;;16.48;7.37;;;;;;;3.66;97.20;99319.56;1769989;79;21808;-71
2022/01/27 01:46:53;;;;;;;27.35;8.23;;;;;;;3.66;97.26;99315.69;1790593;79;26673;-71
2022/01/27 01:49:22;;;;;;;19.12;7.65;;;;;;;3.67;97.30;99316.11;1748407;79;21950;-71
2022/01/27 01:51:49;;;;;;;16.97;8.15;;;;;;;3.70;97.24;99309.58;1780673;80;20899;-71
2022/01/27 01:54:16;;;;;;;19.10;8.23;;;;;;;3.69;97.11;99298.83;1777686;79;25412;-71
2022/01/27 01:56:44;;;;;;;20.00;9.23;;;;;;;3.67;97.12;99292.87;1783134;79;20934;-71
2022/01/27 01:59:11;;;;;;;19.42;8.20;;;;;;;3.68;97.13;99304.05;1787036;79;21423;-71
2022/01/27 02:01:39;;;;;;;17.02;8.63;;;;;;;3.69;97.18;99306.57;1787061;79;21807;-71
2022/01/27 02:04:09;;;;;;;18.27;9.00;;;;;;;3.70;97.18;99305.70;1785844;79;20890;-71
2022/01/27 02:06:51;;;;;;;25.55;9.48;;;;;;;3.71;97.20;99297.06;1787508;79;21360;-71
2022/01/27 02:09:36;;;;;;;18.50;9.83;;;;;;;3.72;97.11;99291.00;1791672;79;20890;-71
2022/01/27 02:20:11;;;;;;;24.15;11.28;;;;;;;3.68;97.06;99284.69;1782246;79;20867;-71
2022/01/27 02:22:39;;;;;;;20.12;9.55;;;;;;;3.68;97.04;99278.23;1756695;81;20973;-72
2022/01/27 02:25:07;;;;;;;18.55;10.28;;;;;;;3.67;97.18;99277.39;1760667;79;20969;-71
2022/01/27 02:27:35;;;;;;;22.13;11.25;;;;;;;3.65;97.08;99276.57;1767157;79;21095;-71
2022/01/27 02:30:02;;;;;;;19.95;10.60;;;;;;;3.67;97.08;99271.34;1771070;79;21404;-71
2022/01/27 02:32:28;;;;;;;20.67;11.70;;;;;;;3.66;97.05;99269.66;1755853;79;20894;-70
2022/01/27 02:34:59;;;;;;;20.70;11.83;;;;;;;3.67;97.02;99265.77;1785838;79;20930;-71
2022/01/27 02:37:24;;;;;;;22.67;12.15;;;;;;;3.66;96.96;99269.66;1773884;79;22168;-71
2022/01/27 02:39:51;;;;;;;21.95;10.95;;;;;;;3.65;96.96;99275.28;1787862;79;21002;-71
2022/01/27 02:42:35;;;;;;;22.70;12.35;;;;;;;3.64;96.96;99267.14;1771136;80;20902;-70
2022/01/27 02:45:10;;;;;;;20.02;11.33;;;;;;;3.64;96.93;99267.14;1780481;79;20883;-70
2022/01/27 02:47:37;;;;;;;22.90;12.13;;;;;;;3.59;97.09;99253.50;1752222;80;20973;-71
2022/01/27 02:50:05;;;;;;;17.55;11.83;;;;;;;3.56;97.11;99253.59;1773426;80;21372;-71
2022/01/27 02:52:32;;;;;;;19.87;11.65;;;;;;;3.55;97.12;99244.13;1766459;79;21329;-71
2022/01/27 02:54:58;;;;;;;18.40;11.80;;;;;;;3.56;97.13;99254.87;1762477;79;21546;-71
2022/01/27 02:57:27;;;;;;;22.82;12.47;;;;;;;3.68;96.84;99242.92;1761854;81;20916;-71
2022/01/27 02:59:54;;;;;;;22.42;12.20;;;;;;;3.60;96.80;99246.15;1757783;81;20890;-71
2022/01/27 03:02:21;;;;;;;21.20;12.40;;;;;;;3.59;96.93;99235.43;1779758;79;20958;-70
2022/01/27 03:04:48;;;;;;;21.57;11.60;;;;;;;3.60;96.93;99216.46;1772481;80;21196;-70
2022/01/27 03:07:15;;;;;;;26.70;12.10;;;;;;;3.58;96.89;99220.81;1784088;79;20911;-70
2022/01/27 03:09:41;;;;;;;19.82;11.43;;;;;;;3.58;96.90;99210.48;1785343;79;20890;-70
2022/01/27 03:12:13;;;;;;;22.07;13.27;;;;;;;3.55;96.95;99195.08;1781756;79;20894;-70
2022/01/27 03:14:41;;;;;;;23.77;12.07;;;;;;;3.56;96.93;99205.38;1772100;79;21532;-70
2022/01/27 03:17:09;;;;;;;20.62;12.37;;;;;;;3.56;96.93;99214.86;1772790;80;21059;-70
2022/01/27 03:19:37;;;;;;;21.12;11.57;;;;;;;3.56;96.91;99204.54;1779261;79;20890;-70
2022/01/27 03:22:04;;;;;;;;;;;;;;;3.56;96.88;99202.80;1779517;79;20946;-71
2022/01/27 03:24:31;;;;;;;20.37;12.45;;;;;;;3.54;96.83;99195.98;1782873;79;20442;-70
2022/01/27 03:26:58;;;;;;;27.50;13.00;;;;;;;3.54;96.90;99180.49;1766760;78;20962;-71
2022/01/27 03:29:26;;;;;;;21.30;12.90;;;;;;;3.54;96.87;99190.81;1762343;79;21232;-70
2022/01/27 03:31:54;;;;;;;19.40;9.95;;;;;;;3.55;96.87;99184.76;1756719;81;23669;-71
2022/01/27 03:34:21;;;;;;;22.10;13.00;;;;;;;3.63;96.69;99171.20;1775016;80;21409;-71
2022/01/27 03:36:49;;;;;;;23.38;14.13;;;;;;;3.57;96.58;99171.38;1785514;79;21434;-71
2022/01/27 03:39:18;;;;;;;24.45;13.90;;;;;;;3.56;96.63;99178.73;1785436;79;20951;-71
2022/01/27 03:41:49;;;;;;;27.98;15.05;;;;;;;3.57;96.61;99168.79;1786713;79;20997;-71
2022/01/27 03:44:12;;;;;;;22.87;14.95;;;;;;;3.58;96.62;99171.77;1781012;79;20863;-71
2022/01/27 03:46:39;;;;;;;25.30;14.00;;;;;;;3.58;96.59;99164.02;1776730;79;21424;-70
2022/01/27 03:49:05;;;;;;;27.02;14.20;;;;;;;3.58;96.61;99146.82;1789963;79;20871;-71
2022/01/27 03:51:32;;;;;;;22.05;14.25;;;;;;;3.60;96.57;99146.76;1786157;79;21058;-71
2022/01/27 03:53:59;;;;;;;21.37;12.70;;;;;;;3.59;96.55;99131.72;1788229;79;21009;-71
2022/01/27 03:56:25;;;;;;;24.72;14.10;;;;;;;3.59;96.58;99124.42;1791656;79;20878;-71
2022/01/27 03:58:52;;;;;;;24.52;14.20;;;;;;;3.60;96.52;99118.36;1787253;79;20862;-70
2022/01/27 04:01:19;;;;;;;22.73;14.60;;;;;;;3.60;96.53;99126.11;1787443;79;20969;-70
2022/01/27 04:03:45;;;;;;;22.00;13.03;;;;;;;3.62;96.49;99120.47;1782901;79;20886;-70
2022/01/27 04:06:19;;;;;;;20.37;11.88;;;;;;;3.62;96.45;99114.02;1776537;79;21014;-71
2022/01/27 04:08:40;;;;;;;18.80;11.95;;;;;;;3.62;96.41;99103.68;1775773;80;21455;-70
2022/01/27 04:11:10;;;;;;;21.12;13.35;;;;;;;3.63;96.38;99094.20;1780752;79;21443;-71
2022/01/27 04:13:37;;;;;;;25.90;13.90;;;;;;;3.63;96.41;99104.52;1776951;79;20958;-71
2022/01/27 04:16:05;;;;;;;23.50;12.93;;;;;;;3.63;96.40;99095.03;1777623;79;20989;-71
2022/01/27 04:18:31;;;;;;;26.52;13.78;;;;;;;3.63;96.35;99084.70;1774043;80;21436;-71
2022/01/27 04:20:58;;;;;;;26.10;14.55;;;;;;;3.62;96.38;99080.45;1766995;79;20914;-71
2022/01/27 04:23:25;;;;;;;24.43;13.28;;;;;;;3.62;96.31;99078.31;1754529;79;21007;-71
2022/01/27 04:25:52;;;;;;;23.40;13.87;;;;;;;3.61;96.25;99067.12;1722760;82;21059;-71
2022/01/27 04:28:25;;;;;;;27.30;14.73;;;;;;;3.61;96.30;99067.57;1756156;81;21032;-71
2022/01/27 04:30:48;;;;;;;20.43;12.82;;;;;;;3.58;96.31;99058.17;1757038;81;21874;-71
2022/01/27 04:33:16;;;;;;;24.90;14.05;;;;;;;3.53;96.57;99057.49;1748394;81;21435;-70
2022/01/27 04:35:47;;;;;;;23.87;14.18;;;;;;;3.52;96.62;99068.69;1758472;79;20945;-71
2022/01/27 04:40:48;;;;;;;23.85;14.38;;;;;;;3.48;96.87;99064.52;1733560;81;20973;-71
2022/01/27 04:43:27;;;;;;;19.42;11.90;;;;;;;3.47;96.91;99059.78;1754200;81;20993;-71
2022/01/27 04:48:35;;;;;;;23.38;13.05;;;;;;;3.48;96.90;99076.13;1694645;83;20988;-71
2022/01/27 04:51:05;;;;;;;22.02;13.15;;;;;;;3.45;96.83;99067.19;1686247;83;21444;-71
2022/01/27 04:53:32;;;;;;;22.67;13.55;;;;;;;3.57;96.45;99066.83;1693889;82;20952;-71
2022/01/27 04:55:56;;;;;;;21.50;13.15;;;;;;;3.59;96.37;99049.56;1691701;83;21800;-71
2022/01/27 04:58:30;;;;;;;27.17;13.93;;;;;;;3.58;96.38;99051.72;1693706;83;20979;-71
2022/01/27 05:00:52;;;;;;;17.12;12.07;;;;;;;3.58;96.36;99040.11;1691949;83;20932;-71
2022/01/27 05:03:22;;;;;;;20.35;12.10;;;;;;;3.62;96.29;99026.23;1698699;83;21114;-71
2022/01/27 05:05:47;;;;;;;17.55;12.13;;;;;;;3.62;96.24;99019.78;1709054;83;20875;-71
2022/01/27 05:08:19;;;;;;;23.92;12.65;;;;;;;3.62;96.19;99018.48;1703084;83;21881;-71
2022/01/27 05:11:02;;;;;;;19.60;11.97;;;;;;;3.62;96.15;99023.66;1705535;83;20942;-71
2022/01/27 05:13:28;;;;;;;19.40;11.78;;;;;;;3.62;96.15;99009.91;1702679;83;20942;-71
2022/01/27 05:15:54;;;;;;;23.40;13.48;;;;;;;3.62;96.10;99010.75;1702367;83;20933;-71
2022/01/27 05:18:21;;;;;;;19.35;12.55;;;;;;;3.62;96.08;99012.03;1698763;82;20934;-71
2022/01/27 05:20:50;;;;;;;19.60;12.47;;;;;;;3.64;96.14;98998.64;1687879;83;21953;-71
2022/01/27 05:23:17;;;;;;;18.92;11.08;;;;;;;3.65;96.05;99008.06;1716380;82;20933;-71
2022/01/27 05:25:43;;;;;;;21.25;12.43;;;;;;;3.64;96.01;98997.36;1727181;82;21496;-71
2022/01/27 05:28:10;;;;;;;15.30;10.80;;;;;;;3.64;96.04;98989.61;1729147;82;21475;-70
2022/01/27 05:30:37;;;;;;;19.15;12.23;;;;;;;3.67;96.07;98995.09;1739888;82;20988;-71
2022/01/27 05:33:03;;;;;;;14.98;10.43;;;;;;;3.67;96.10;98997.26;1757489;81;21050;-70
2022/01/27 05:35:30;;;;;;;20.25;11.90;;;;;;;3.67;95.95;98989.93;1752398;81;20927;-70
2022/01/27 05:37:57;;;;;;;20.25;11.93;;;;;;;3.64;95.89;98985.73;1730971;81;21015;-70
2022/01/27 05:40:24;;;;;;;22.82;12.20;;;;;;;3.63;95.82;98984.03;1754267;80;21078;-70
2022/01/27 05:42:50;;;;;;;22.80;13.15;;;;;;;3.59;95.80;98985.03;1756048;81;20976;-70
2022/01/27 05:45:17;;;;;;;20.23;13.10;;;;;;;3.58;95.81;98984.19;1738363;81;21888;-70
2022/01/27 05:47:44;;;;;;;22.93;13.72;;;;;;;3.55;95.83;98970.51;1758799;79;20894;-70
2022/01/27 05:50:10;;;;;;;17.85;12.50;;;;;;;3.55;95.78;98972.64;1731250;81;21061;-70
2022/01/27 05:52:37;;;;;;;19.80;12.73;;;;;;;3.55;95.76;98966.64;1724500;82;21918;-70
2022/01/27 05:55:06;;;;;;;21.05;12.45;;;;;;;3.53;95.73;98951.66;1735574;82;21124;-70
2022/01/27 05:57:32;;;;;;;24.32;14.63;;;;;;;3.51;95.66;98950.86;1728411;82;21064;-70
2022/01/27 05:59:59;;;;;;;19.10;11.95;;;;;;;3.48;95.67;98940.64;1747649;81;20946;-70
2022/01/27 06:02:25;;;;;;;16.12;11.95;;;;;;;3.47;95.65;98941.51;1749610;81;20938;-70
2022/01/27 06:04:52;;;;;;;19.62;12.18;;;;;;;3.45;95.67;98936.86;1748538;81;21001;-70
2022/01/27 06:07:18;;;;;;;18.42;11.48;;;;;;;3.44;95.71;98931.28;1754692;81;21393;-71
2022/01/27 06:09:45;;;;;;;12.90;10.20;;;;;;;3.44;95.67;98920.95;1745012;81;21054;-71
2022/01/27 06:12:12;;;;;;;17.90;12.23;;;;;;;3.41;95.58;98913.31;1738688;81;20912;-71
2022/01/27 06:14:39;;;;;;;18.50;12.40;;;;;;;3.40;95.56;98914.22;1736411;81;21013;-70
2022/01/27 06:17:05;;;;;;;;;;;;;;;3.34;95.53;98913.51;1726623;81;20945;-70
2022/01/27 06:19:32;;;;;;;15.00;10.18;;;;;;;3.30;95.49;98896.42;1753736;79;20140;-71
2022/01/27 06:21:59;;;;;;;14.73;10.05;;;;;;;3.25;95.52;98885.42;1750891;79;21828;-71
2022/01/27 06:24:25;;;;;;;20.85;11.08;;;;;;;3.23;95.56;98883.33;1788745;79;21428;-72
2022/01/27 06:26:52;;;;;;;13.87;9.23;;;;;;;3.20;95.50;98886.00;1786145;79;20939;-69
2022/01/27 06:29:19;;;;;;;18.40;9.20;;;;;;;3.19;95.53;98885.58;1792266;79;20929;-70
2022/01/27 06:31:47;;;;;;;17.85;9.00;;;;;;;3.17;95.55;98875.78;1789243;79;21474;-70
2022/01/27 06:34:14;;;;;;;13.65;9.68;;;;;;;3.16;95.63;98871.94;1790459;79;20954;-70
2022/01/27 06:36:41;;;;;;;11.30;8.40;;;;;;;3.11;95.69;98869.53;1796400;78;20938;-70
2022/01/27 06:39:07;;;;;;;11.38;7.08;;;;;;;3.12;95.58;98872.04;1758769;79;22146;-70
2022/01/27 06:41:34;;;;;;;11.45;7.87;;;;;;;3.11;95.54;98861.78;1785411;79;20867;-70
2022/01/27 06:44:02;;;;;;;10.50;6.78;;;;;;;3.10;95.54;98862.66;1768640;79;20910;-70
2022/01/27 06:46:29;;;;;;;9.93;6.75;;;;;;;3.11;95.60;98852.76;1779362;79;21054;-70
2022/01/27 06:48:55;;;;;;;9.10;7.08;;;;;;;3.10;95.57;98847.19;1788854;78;20902;-70
2022/01/27 06:51:23;;;;;;;10.57;6.50;;;;;;;3.08;95.49;98846.38;1787006;78;20922;-70
2022/01/27 06:53:50;;;;;;;9.20;5.90;;;;;;;3.05;95.47;98836.16;1773767;79;20945;-67
2022/01/27 06:56:16;;;;;;;7.22;6.08;;;;;;;3.05;95.57;98838.73;1784262;79;21032;-70
2022/01/27 06:58:43;;;;;;;8.37;5.67;;;;;;;3.04;95.55;98834.48;1777640;79;21756;-78
2022/01/27 07:01:10;;;;;;;8.77;5.97;;;;;;;3.05;95.57;98820.69;1779465;79;20985;-72
2022/01/27 07:03:36;;;;;;;8.03;6.00;;;;;;;3.04;95.62;98819.84;1786781;78;20910;-72
2022/01/27 07:06:03;;;;;;;8.33;5.58;;;;;;;3.04;95.64;98817.27;1780940;78;20887;-72
2022/01/27 07:08:30;;;;;;;8.10;5.63;;;;;;;3.05;95.66;98800.05;1772989;79;21640;-72
2022/01/27 07:10:56;;;;;;;7.47;5.58;;;;;;;3.05;95.65;98787.16;1785503;79;21064;-71
2022/01/27 07:13:23;;;;;;;6.80;4.63;;;;;;;3.04;95.59;98782.91;1767694;79;20952;-72
2022/01/27 07:15:50;;;;;;;6.97;5.00;;;;;;;3.06;95.61;98791.44;1770313;79;20992;-72
2022/01/27 07:18:17;;;;;;;5.55;4.15;;;;;;;3.06;95.56;98787.58;1772156;79;20937;-72
2022/01/27 07:20:45;;;;;;;7.03;4.17;;;;;;;3.06;95.58;98786.28;1774796;79;21032;-71
2022/01/27 07:23:11;;;;;;;;;;;;;;;3.04;95.50;98777.74;1783919;79;21002;-72
2022/01/27 07:25:38;;;;;;;5.63;4.30;;;;;;;3.01;95.42;98776.10;1755914;80;20098;-72
2022/01/27 07:28:05;;;;;;;5.20;3.40;;;;;;;3.01;95.49;98773.98;1783553;79;20950;-72
2022/01/27 07:30:31;;;;;;;6.80;3.50;;;;;;;3.02;95.47;98767.91;1786429;79;20874;-71
2022/01/27 07:32:58;;;;;;;4.93;2.77;;;;;;;3.00;95.34;98752.96;1778986;80;20871;-72
2022/01/27 07:35:25;;;;;;;4.73;3.23;;;;;;;2.96;95.22;98756.51;1790190;78;21430;-70
2022/01/27 07:37:51;;;;;;;4.07;3.00;;;;;;;2.92;95.17;98754.48;1760833;79;21717;-72
2022/01/27 07:40:18;;;;;;;3.27;2.50;;;;;;;2.84;94.88;98757.30;1790945;78;20925;-71
2022/01/27 07:42:47;;;;;;;3.05;2.50;;;;;;;2.78;94.86;98758.78;1751157;81;20920;-72
2022/01/27 07:45:14;;;;;;;3.58;2.60;;;;;;;2.71;94.82;98762.42;1757351;81;20913;-72
2022/01/27 07:47:41;;;;;;;5.05;2.58;;;;;;;2.64;94.79;98748.05;1779022;79;21055;-72
2022/01/27 07:50:08;;;;;;;3.77;2.62;;;;;;;2.62;94.89;98742.09;1782543;79;21444;-71
2022/01/27 07:52:34;;;;;;;;;;;;;;;2.59;94.98;98734.02;1814262;77;21518;-71
2022/01/27 07:55:03;;;;;;;3.92;2.30;;;;;;;2.60;95.02;98732.27;1820997;77;20133;-72
2022/01/27 07:57:30;;;;;;;2.98;1.90;;;;;;;2.59;95.07;98726.73;1818946;77;20965;-72
2022/01/27 07:59:56;;;;;;;3.00;2.45;;;;;;;2.62;95.06;98726.63;1817866;77;20963;-71
2022/01/27 08:02:23;;;;;;;2.77;2.20;;;;;;;2.63;95.13;98723.16;1815822;77;20914;-71
2022/01/27 08:04:49;;;;;;;3.92;3.10;;;;;;;2.66;95.15;98717.91;1815330;77;20914;-72
2022/01/27 08:07:16;;;;;;;3.45;2.42;;;;;;;2.67;95.06;98715.74;1811124;78;20891;-71
2022/01/27 08:09:43;;;;;;;2.50;2.10;;;;;;;2.69;95.13;98716.55;1817551;77;20973;-70
2022/01/27 08:12:12;;;;;;;4.12;2.45;;;;;;;2.75;95.23;98709.91;1809004;78;21110;-71
2022/01/27 08:14:42;;;;;;;3.80;2.40;;;;;;;2.81;95.16;98716.14;1812725;76;20949;-71
2022/01/27 08:17:10;;;;;;;4.62;2.00;;;;;;;2.86;95.21;98697.52;1814568;77;21012;-71
2022/01/27 08:19:36;;;;;;;2.85;2.00;;;;;;;2.89;95.06;98692.25;1812066;77;20902;-70
2022/01/27 08:22:04;;;;;;;4.70;2.30;;;;;;;2.89;94.94;98690.97;1817379;77;21439;-72
2022/01/27 08:24:34;;;;;;;4.67;2.20;;;;;;;2.88;94.90;98685.39;1818252;77;25178;-71
2022/01/27 08:27:04;;;;;;;4.35;2.45;;;;;;;2.88;94.90;98669.92;1819447;77;20906;-71
2022/01/27 08:29:39;;;;;;;4.65;3.05;;;;;;;2.86;94.77;98656.26;1815039;77;20902;-71
2022/01/27 08:32:05;;;;;;;5.10;3.90;;;;;;;2.85;94.86;98675.18;1818133;77;20937;-71
2022/01/27 08:34:41;;;;;;;2.70;2.12;;;;;;;2.88;94.98;98658.32;1817098;76;21487;-71
2022/01/27 08:37:21;;;;;;;3.27;1.80;;;;;;;2.89;94.97;98653.58;1815339;77;21185;-70
2022/01/27 08:39:46;;;;;;;2.20;1.37;;;;;;;2.91;94.89;98651.80;1813427;77;21413;-70
2022/01/27 08:42:14;;;;;;;2.80;1.72;;;;;;;2.94;94.95;98649.98;1765207;80;20858;-70
2022/01/27 08:44:41;;;;;;;4.78;3.52;;;;;;;2.95;94.89;98643.95;1761309;79;20965;-70
2022/01/27 08:47:11;;;;;;;3.52;1.80;;;;;;;2.94;94.80;98629.36;1762146;80;21017;-71
2022/01/27 08:49:37;;;;;;;1.92;1.60;;;;;;;2.96;94.70;98635.31;1762440;80;21908;-70
2022/01/27 08:52:07;;;;;;;2.27;1.57;;;;;;;2.98;94.88;98627.09;1788511;79;20961;-71
2022/01/27 08:54:38;;;;;;;2.12;1.67;;;;;;;2.97;94.68;98626.67;1771177;80;21598;-71
2022/01/27 08:57:05;;;;;;;4.83;1.40;;;;;;;2.94;94.66;98619.05;1771057;79;20968;-71
2022/01/27 08:59:40;;;;;;;2.27;1.70;;;;;;;2.93;94.76;98613.05;1791259;79;20933;-71
2022/01/27 09:02:03;;;;;;;1.90;1.40;;;;;;;2.92;94.78;98616.54;1782504;78;20898;-70
2022/01/27 09:04:33;;;;;;;2.20;1.50;;;;;;;2.97;94.91;98604.76;1773805;79;21479;-69
2022/01/27 09:07:00;;;;;;;2.83;1.62;;;;;;;2.99;95.04;98596.53;1761498;78;21495;-71
2022/01/27 09:09:29;;;;;;;1.40;1.20;;;;;;;3.06;95.18;98603.17;1784652;79;20902;-69
2022/01/27 09:11:58;;;;;;;1.72;1.12;;;;;;;3.10;95.06;98597.00;1782764;79;20934;-70
2022/01/27 09:14:30;;;;;;;1.45;1.10;;;;;;;3.12;94.93;98583.16;1775450;79;20995;-69
2022/01/27 09:17:00;;;;;;;1.85;1.10;;;;;;;3.16;95.00;98580.02;1782834;79;21005;-81
2022/01/27 09:19:28;;;;;;;1.98;1.30;;;;;;;3.18;94.85;98571.78;1783535;78;21487;-81
2022/01/27 09:21:55;;;;;;;1.00;0.90;;;;;;;3.18;94.94;98576.94;1787766;79;20954;-82
2022/01/27 09:24:36;;;;;;;5.42;1.62;;;;;;;3.20;94.99;98562.26;1774876;79;21088;-82
2022/01/27 09:27:01;;;;;;;1.10;1.00;;;;;;;3.19;94.83;98564.42;1745046;81;21135;-80
2022/01/27 09:29:28;;;;;;;1.10;0.90;;;;;;;3.15;94.84;98555.13;1743473;79;20953;-78
2022/01/27 09:31:56;;;;;;;1.30;0.90;;;;;;;3.12;94.85;98553.95;1774286;80;21480;-81
2022/01/27 09:34:22;;;;;;;;;;;;;;;3.10;94.99;98542.84;1758823;81;21495;-83
2022/01/27 09:36:50;;;;;;;3.27;2.12;;;;;;;3.14;95.17;98541.85;1724721;81;20096;-82
2022/01/27 09:39:20;;;;;;;1.62;1.32;;;;;;;3.13;95.19;98533.70;1769143;80;21081;-82
2022/01/27 09:41:51;;;;;;;1.20;0.93;;;;;;;3.15;95.26;98538.36;1766552;79;20910;-81
2022/01/27 09:44:20;;;;;;;2.27;1.70;;;;;;;3.21;95.37;98535.56;1770605;80;20965;-79
2022/01/27 09:46:47;;;;;;;4.25;2.52;;;;;;;3.23;95.23;98527.78;1782741;80;20907;-84
2022/01/27 09:49:17;;;;;;;1.60;1.50;;;;;;;3.21;95.25;98522.66;1772930;80;20947;-81
2022/01/27 09:51:45;;;;;;;2.30;1.42;;;;;;;3.23;95.30;98525.20;1730955;82;21373;-81
2022/01/27 09:54:15;;;;;;;3.92;2.85;;;;;;;3.25;95.38;98520.80;1773109;79;20958;-82
2022/01/27 09:56:43;;;;;;;1.60;1.10;;;;;;;3.34;95.60;98509.70;1780026;80;20953;-71
2022/01/27 09:59:13;;;;;;;2.60;1.40;;;;;;;3.39;95.44;98500.94;1776358;80;20918;-71
2022/01/27 10:01:57;;;;;;;1.52;1.27;;;;;;;3.45;95.44;98495.57;1780379;80;21006;-71
2022/01/27 10:04:45;;;;;;;0.98;0.80;;;;;;;3.49;95.44;98495.83;1778172;80;20984;-70
2022/01/27 10:07:16;;;;;;;0.70;0.70;;;;;;;3.55;95.44;98493.02;1772127;80;20942;-70
2022/01/27 10:10:02;;;;;;;0.93;0.82;;;;;;;3.61;95.42;98489.36;1780168;80;20902;-70
2022/01/27 10:12:38;;;;;;;1.00;0.70;;;;;;;3.63;95.40;98481.11;1770644;80;20918;-70
2022/01/27 10:15:20;;;;;;;1.10;1.00;;;;;;;3.62;95.33;98473.82;1777919;80;20989;-70
2022/01/27 10:18:09;;;;;;;1.07;0.80;;;;;;;3.61;95.33;98479.86;1775784;80;21083;-70
2022/01/27 10:20:40;;;;;;;1.85;1.02;;;;;;;3.58;95.35;98482.56;1776563;80;20848;-70
2022/01/27 10:23:24;;;;;;;1.10;1.00;;;;;;;3.57;95.38;98477.03;1774849;80;20947;-70
2022/01/27 10:26:03;;;;;;;1.60;1.05;;;;;;;3.58;95.47;98481.28;1789057;79;20911;-70
2022/01/27 10:31:07;;;;;;;1.12;0.75;;;;;;;3.62;95.57;98455.75;1789690;79;21108;-70
2022/01/27 10:33:49;;;;;;;0.80;0.80;;;;;;;3.68;95.69;98452.92;1792788;79;20870;-70
2022/01/27 10:36:24;;;;;;;2.35;0.80;;;;;;;3.71;95.59;98454.09;1760210;79;20930;-70
2022/01/27 10:39:04;;;;;;;1.15;1.05;;;;;;;3.73;95.67;98437.27;1782807;79;20906;-70
2022/01/27 10:41:34;;;;;;;1.72;1.22;;;;;;;3.77;95.74;98433.19;1775026;79;20934;-70
2022/01/27 10:44:17;;;;;;;1.50;1.05;;;;;;;3.85;95.72;98438.51;1758086;79;21884;-70
2022/01/27 10:47:09;;;;;;;2.40;1.40;;;;;;;3.89;95.69;98430.55;1771297;79;20920;-70
2022/01/27 10:49:39;;;;;;;1.60;1.00;;;;;;;3.90;95.64;98413.34;1750031;80;20895;-70
2022/01/27 10:52:05;;;;;;;1.35;0.93;;;;;;;3.93;95.69;98428.70;1765681;79;20910;-69
2022/01/27 10:54:39;;;;;;;2.62;1.30;;;;;;;4.00;95.79;98415.91;1748726;80;20859;-69
2022/01/27 10:57:10;;;;;;;1.55;1.27;;;;;;;4.01;95.73;98414.58;1787328;79;21047;-70
2022/01/27 10:59:40;;;;;;;2.98;1.20;;;;;;;4.08;95.80;98409.98;1768776;79;20933;-70
2022/01/27 11:02:12;;;;;;;1.92;0.88;;;;;;;4.12;95.72;98411.55;1779287;79;20859;-69
2022/01/27 11:04:43;;;;;;;1.20;1.10;;;;;;;4.14;95.63;98395.51;1785513;78;21383;-73
2022/01/27 11:07:17;;;;;;;1.12;0.80;;;;;;;4.15;95.65;98393.34;1774783;79;20930;-71
2022/01/27 11:09:44;;;;;;;2.55;1.20;;;;;;;4.20;95.78;98386.23;1789265;79;21044;-75
2022/01/27 11:12:16;;;;;;;1.22;1.00;;;;;;;4.24;95.72;98386.47;1777508;79;20955;-74
2022/01/27 11:14:42;;;;;;;2.52;1.00;;;;;;;4.23;95.58;98374.47;1753265;81;20886;-72
2022/01/27 11:17:17;;;;;;;1.25;0.90;;;;;;;4.23;95.66;98365.42;1781240;79;21598;-73
2022/01/27 11:27:37;;;;;;;1.82;1.20;;;;;;;4.35;95.78;98358.05;1775506;79;20962;-70
2022/01/27 11:30:24;;;;;;;1.12;0.88;;;;;;;4.41;95.82;98346.14;1767075;80;20914;-73
2022/01/27 11:32:55;;;;;;;1.82;1.02;;;;;;;4.43;95.73;98333.55;1793950;78;20945;-72
2022/01/27 11:35:24;;;;;;;1.37;0.85;;;;;;;4.39;95.56;98329.41;1767395;79;21941;-73
2022/01/27 11:37:54;;;;;;;2.10;1.00;;;;;;;4.37;95.65;98333.82;1768517;79;20988;-73
2022/01/27 11:40:24;;;;;;;1.27;1.15;;;;;;;4.38;95.78;98335.95;1785788;79;21452;-72
2022/01/27 11:43:01;;;;;;;1.65;1.05;;;;;;;4.41;95.76;98331.93;1747018;79;20955;-72
2022/01/27 11:45:46;;;;;;;1.72;0.80;;;;;;;4.38;95.66;98323.02;1775765;79;26516;-73
2022/01/27 11:48:18;;;;;;;1.52;1.02;;;;;;;4.33;95.63;98328.84;1779519;79;21401;-74
2022/01/27 11:53:42;;;;;;;1.47;1.10;;;;;;;4.32;95.85;98316.84;1789481;79;20886;-76
2022/01/27 11:56:31;;;;;;;1.07;0.90;;;;;;;4.32;95.89;98310.38;1773958;80;21491;-76
2022/01/27 11:59:01;;;;;;;1.95;0.90;;;;;;;4.35;95.99;98307.20;1790959;78;21497;-76
2022/01/27 12:01:37;;;;;;;1.75;1.50;;;;;;;4.41;96.08;98316.42;1773542;79;21111;-75
2022/01/27 12:04:15;;;;;;;2.20;2.00;;;;;;;4.42;95.92;98311.17;1782844;79;20914;-74
2022/01/27 12:06:51;;;;;;;1.80;1.47;;;;;;;4.43;95.87;98315.45;1792136;79;21004;-74
2022/01/27 12:09:27;;;;;;;2.83;1.40;;;;;;;4.41;95.75;98309.97;1785637;78;20940;-72
2022/01/27 12:12:11;;;;;;;1.97;1.77;;;;;;;4.37;95.80;98296.35;1788845;79;20993;-73
2022/01/27 12:14:47;;;;;;;1.50;1.15;;;;;;;4.36;95.87;98288.19;1782426;78;21053;-74
2022/01/27 12:17:21;;;;;;;2.35;1.30;;;;;;;4.36;95.91;98289.95;1778863;79;21387;-74
2022/01/27 12:20:05;;;;;;;1.32;1.00;;;;;;;4.36;95.97;98278.31;1786088;79;20875;-74
2022/01/27 12:22:55;;;;;;;1.45;1.07;;;;;;;4.37;95.96;98283.86;1789563;79;20930;-74
2022/01/27 12:25:21;;;;;;;3.05;1.60;;;;;;;4.33;95.96;98272.83;1771469;79;20949;-74
2022/01/27 12:27:58;;;;;;;2.52;1.42;;;;;;;4.30;95.97;98266.97;1750077;80;21088;-74
2022/01/27 12:30:25;;;;;;;2.10;1.60;;;;;;;4.29;96.13;98253.67;1735884;81;20989;-74
2022/01/27 12:32:56;;;;;;;2.35;1.70;;;;;;;4.30;96.25;98256.63;1755775;81;20922;-75
2022/01/27 12:35:22;;;;;;;3.80;1.70;;;;;;;4.36;96.20;98261.52;1744605;81;20918;-75